Aérodrome :
LOGIN :

S'inscrire | Disclaimer

   EN    FR    IT 

 










Légende :    VFR   VFR Marginal   IFR   IFR Intensif   IFR Très Intensif
Visi : 
Plafond : 
>= 8 km
>= 3000ft
5 à 8 km
1000 à 3000 ft
1500m à 5 km
500 à 1000 ft
800 à 1500m
200 à 500 ft
< 800m
< 200 ft
Symboles :   Orages  Brouillard  Fortes neiges  Fortes précipitations  Vent > 20 kt
SIGMETs :   Divers  Orages  Givrage  Turbulence  Onde Orograph.  Cendres Volcan.






- Altitude de l'aérodrome : 10 ft
- Code IATA : AAL


EKYT - Aalborg

DERNIER METAR :
  • 170050Z AUTO 23021KT 9999 FEW031/// BKN050/// 07/04 Q0987

METARs EXPIRÉS :
  • 170020Z AUTO 23021KT 9999 FEW024/// SCT170/// 07/04 Q0986
  • 170003Z AUTO 23022G33KT 9999 FEW023/// SCT037/// BKN120/// BKN140/// 07/04 Q0986
  • 162355Z AUTO 23022G33KT 9999 FEW022/// SCT032/// BKN042/// BKN130/// 07/04 Q0986
  • 162320Z AUTO 23019KT 9999 FEW025/// BKN030/// BKN038/// 07/04 Q0986
  • 162250Z AUTO 22020KT 9999 FEW023/// SCT034/// BKN039/// BKN170/// 06/04 Q0986
  • 162220Z AUTO 22019KT 9999 FEW120/// BKN130/// BKN150/// 06/04 Q0985
  • 162150Z AUTO 22018KT 9999 SCT120/// BKN130/// 06/04 Q0985

TAF TAF EKYT
Valide du 17 à 00h jusqu'au 18 à 00h UTC


162312Z 1700/1724 23020G32KT 9999 SCT025
TEMPO 1700/1718 24025G42KT 5000 -SHRA SCT015CB



MET'MAP, la Météo Aéronautique d'un coup d'oeil ! - Copyright ORBIFLY Décembre 2007 - Disclaimer

ORBIFLY MET'MAP TEAM :

Programmation & Développement : Alexandra Zaïnal
Sur une idée originale de : Baudouin d'Aumeries
Assistance à la programmation : Marc-Olivier Méhu
Soutien technique & logistique : Manuel Goepfert

Contact : metmap@orbifly.com




SOURCES & CREDITS :

   NOAA